sensor_id;sensor_type;location;lat;lon;timestamp;P1;durP1;ratioP1;P2;durP2;ratioP2
13801;SDS011;6972;51.518;6.918;2023-03-29T00:01:27;4.70;;;2.70;;
13801;SDS011;6972;51.518;6.918;2023-03-29T00:29:47;9.00;;;3.20;;
13801;SDS011;6972;51.518;6.918;2023-03-29T00:50:23;6.50;;;3.00;;
13801;SDS011;6972;51.518;6.918;2023-03-29T01:11:24;7.20;;;2.90;;
13801;SDS011;6972;51.518;6.918;2023-03-29T01:13:54;5.63;;;2.83;;
13801;SDS011;6972;51.518;6.918;2023-03-29T01:22:08;4.77;;;2.93;;
13801;SDS011;6972;51.518;6.918;2023-03-29T01:46:26;4.37;;;2.63;;
13801;SDS011;6972;51.518;6.918;2023-03-29T02:12:51;5.67;;;2.50;;
13801;SDS011;6972;51.518;6.918;2023-03-29T02:23:44;3.73;;;1.90;;
13801;SDS011;6972;51.518;6.918;2023-03-29T02:44:24;2.97;;;2.03;;
13801;SDS011;6972;51.518;6.918;2023-03-29T02:53:17;4.80;;;2.33;;
13801;SDS011;6972;51.518;6.918;2023-03-29T03:08:55;2.60;;;2.07;;
13801;SDS011;6972;51.518;6.918;2023-03-29T03:11:21;4.23;;;2.27;;
13801;SDS011;6972;51.518;6.918;2023-03-29T03:13:47;6.53;;;2.20;;
13801;SDS011;6972;51.518;6.918;2023-03-29T03:16:14;3.73;;;2.20;;
13801;SDS011;6972;51.518;6.918;2023-03-29T03:18:43;6.73;;;2.77;;
13801;SDS011;6972;51.518;6.918;2023-03-29T03:28:43;8.23;;;2.67;;
13801;SDS011;6972;51.518;6.918;2023-03-29T03:31:15;6.07;;;2.87;;
13801;SDS011;6972;51.518;6.918;2023-03-29T03:33:41;4.60;;;2.70;;
13801;SDS011;6972;51.518;6.918;2023-03-29T03:44:03;7.93;;;3.00;;
13801;SDS011;6972;51.518;6.918;2023-03-29T04:09:34;10.17;;;3.43;;
13801;SDS011;6972;51.518;6.918;2023-03-29T04:24:58;10.23;;;3.00;;
13801;SDS011;6972;51.518;6.918;2023-03-29T04:30:00;5.37;;;3.07;;
13801;SDS011;6972;51.518;6.918;2023-03-29T04:32:26;4.93;;;3.33;;
13801;SDS011;6972;51.518;6.918;2023-03-29T04:34:52;6.13;;;3.43;;
13801;SDS011;6972;51.518;6.918;2023-03-29T05:15:55;6.90;;;4.40;;
13801;SDS011;6972;51.518;6.918;2023-03-29T05:23:59;6.90;;;4.73;;
13801;SDS011;6972;51.518;6.918;2023-03-29T05:29:01;8.40;;;5.00;;
13801;SDS011;6972;51.518;6.918;2023-03-29T05:45:39;9.57;;;5.83;;
13801;SDS011;6972;51.518;6.918;2023-03-29T05:53:20;12.63;;;5.17;;
13801;SDS011;6972;51.518;6.918;2023-03-29T06:45:19;8.27;;;5.20;;
13801;SDS011;6972;51.518;6.918;2023-03-29T07:40:21;9.70;;;4.37;;
13801;SDS011;6972;51.518;6.918;2023-03-29T07:42:51;9.80;;;4.00;;
13801;SDS011;6972;51.518;6.918;2023-03-29T07:45:19;10.37;;;4.17;;
13801;SDS011;6972;51.518;6.918;2023-03-29T07:50:23;4.97;;;3.23;;
13801;SDS011;6972;51.518;6.918;2023-03-29T07:52:49;13.70;;;3.87;;
13801;SDS011;6972;51.518;6.918;2023-03-29T07:55:15;10.17;;;3.33;;
13801;SDS011;6972;51.518;6.918;2023-03-29T07:57:41;6.70;;;3.17;;
13801;SDS011;6972;51.518;6.918;2023-03-29T08:00:11;7.37;;;3.30;;
13801;SDS011;6972;51.518;6.918;2023-03-29T08:02:44;7.80;;;3.30;;
13801;SDS011;6972;51.518;6.918;2023-03-29T08:05:14;7.13;;;3.20;;
13801;SDS011;6972;51.518;6.918;2023-03-29T08:07:46;4.33;;;3.07;;
13801;SDS011;6972;51.518;6.918;2023-03-29T08:10:15;6.67;;;3.00;;
13801;SDS011;6972;51.518;6.918;2023-03-29T08:13:54;6.53;;;3.50;;
13801;SDS011;6972;51.518;6.918;2023-03-29T08:16:33;5.30;;;2.97;;
13801;SDS011;6972;51.518;6.918;2023-03-29T08:19:01;5.73;;;3.00;;
13801;SDS011;6972;51.518;6.918;2023-03-29T08:22:10;7.50;;;3.08;;
13801;SDS011;6972;51.518;6.918;2023-03-29T08:24:36;5.80;;;2.97;;
13801;SDS011;6972;51.518;6.918;2023-03-29T08:27:02;6.00;;;3.13;;
13801;SDS011;6972;51.518;6.918;2023-03-29T08:29:29;10.55;;;3.38;;
13801;SDS011;6972;51.518;6.918;2023-03-29T08:31:56;6.53;;;3.23;;
13801;SDS011;6972;51.518;6.918;2023-03-29T08:34:22;6.32;;;3.03;;
13801;SDS011;6972;51.518;6.918;2023-03-29T08:36:59;4.85;;;3.10;;
13801;SDS011;6972;51.518;6.918;2023-03-29T08:49:54;10.50;;;4.30;;
13801;SDS011;6972;51.518;6.918;2023-03-29T08:52:53;7.37;;;3.93;;
13801;SDS011;6972;51.518;6.918;2023-03-29T08:55:34;9.27;;;4.00;;
13801;SDS011;6972;51.518;6.918;2023-03-29T08:58:07;7.83;;;4.47;;
13801;SDS011;6972;51.518;6.918;2023-03-29T09:00:41;8.40;;;4.03;;
13801;SDS011;6972;51.518;6.918;2023-03-29T09:06:15;9.47;;;4.30;;
13801;SDS011;6972;51.518;6.918;2023-03-29T09:08:45;8.07;;;4.03;;
13801;SDS011;6972;51.518;6.918;2023-03-29T09:25:04;6.72;;;3.70;;
13801;SDS011;6972;51.518;6.918;2023-03-29T09:32:59;7.53;;;4.05;;
13801;SDS011;6972;51.518;6.918;2023-03-29T09:35:34;8.73;;;3.65;;
13801;SDS011;6972;51.518;6.918;2023-03-29T09:38:03;6.13;;;3.72;;
13801;SDS011;6972;51.518;6.918;2023-03-29T09:40:54;8.95;;;3.80;;
13801;SDS011;6972;51.518;6.918;2023-03-29T09:43:26;9.00;;;3.38;;
13801;SDS011;6972;51.518;6.918;2023-03-29T09:45:56;10.38;;;4.15;;
13801;SDS011;6972;51.518;6.918;2023-03-29T09:48:25;10.80;;;3.42;;
13801;SDS011;6972;51.518;6.918;2023-03-29T09:50:55;6.35;;;3.45;;
13801;SDS011;6972;51.518;6.918;2023-03-29T09:53:22;7.13;;;3.65;;
13801;SDS011;6972;51.518;6.918;2023-03-29T09:55:49;8.90;;;3.95;;
13801;SDS011;6972;51.518;6.918;2023-03-29T09:58:16;7.95;;;3.53;;
13801;SDS011;6972;51.518;6.918;2023-03-29T10:00:44;9.60;;;3.42;;
13801;SDS011;6972;51.518;6.918;2023-03-29T10:03:25;5.70;;;3.20;;
13801;SDS011;6972;51.518;6.918;2023-03-29T10:05:52;5.32;;;3.40;;
13801;SDS011;6972;51.518;6.918;2023-03-29T10:08:23;8.85;;;3.30;;
13801;SDS011;6972;51.518;6.918;2023-03-29T10:10:51;6.43;;;3.63;;
13801;SDS011;6972;51.518;6.918;2023-03-29T10:13:28;6.97;;;3.70;;
13801;SDS011;6972;51.518;6.918;2023-03-29T10:16:00;8.13;;;3.90;;
13801;SDS011;6972;51.518;6.918;2023-03-29T10:18:28;7.85;;;3.63;;
13801;SDS011;6972;51.518;6.918;2023-03-29T10:21:02;8.98;;;3.50;;
13801;SDS011;6972;51.518;6.918;2023-03-29T10:23:30;6.68;;;3.40;;
13801;SDS011;6972;51.518;6.918;2023-03-29T10:25:57;4.43;;;3.25;;
13801;SDS011;6972;51.518;6.918;2023-03-29T10:28:24;6.90;;;3.83;;
13801;SDS011;6972;51.518;6.918;2023-03-29T10:30:55;8.00;;;3.67;;
13801;SDS011;6972;51.518;6.918;2023-03-29T10:33:23;9.38;;;3.83;;
13801;SDS011;6972;51.518;6.918;2023-03-29T10:35:55;8.27;;;3.55;;
13801;SDS011;6972;51.518;6.918;2023-03-29T10:38:22;5.97;;;3.90;;
13801;SDS011;6972;51.518;6.918;2023-03-29T10:40:52;10.02;;;3.80;;
13801;SDS011;6972;51.518;6.918;2023-03-29T10:43:25;7.13;;;3.72;;
13801;SDS011;6972;51.518;6.918;2023-03-29T10:46:04;8.65;;;3.50;;
13801;SDS011;6972;51.518;6.918;2023-03-29T10:48:54;6.03;;;3.70;;
13801;SDS011;6972;51.518;6.918;2023-03-29T10:51:22;9.85;;;3.90;;
13801;SDS011;6972;51.518;6.918;2023-03-29T10:53:48;10.10;;;4.10;;
13801;SDS011;6972;51.518;6.918;2023-03-29T11:15:19;11.65;;;3.90;;
13801;SDS011;6972;51.518;6.918;2023-03-29T11:28:35;7.65;;;3.53;;
13801;SDS011;6972;51.518;6.918;2023-03-29T11:31:15;11.80;;;4.10;;
13801;SDS011;6972;51.518;6.918;2023-03-29T11:33:58;11.20;;;3.67;;
13801;SDS011;6972;51.518;6.918;2023-03-29T11:42:17;7.78;;;3.53;;
13801;SDS011;6972;51.518;6.918;2023-03-29T11:44:47;4.70;;;3.30;;
13801;SDS011;6972;51.518;6.918;2023-03-29T11:47:19;8.32;;;3.38;;
13801;SDS011;6972;51.518;6.918;2023-03-29T11:49:54;11.25;;;4.00;;
13801;SDS011;6972;51.518;6.918;2023-03-29T11:54:56;9.38;;;4.03;;
13801;SDS011;6972;51.518;6.918;2023-03-29T11:57:25;8.63;;;3.83;;
13801;SDS011;6972;51.518;6.918;2023-03-29T12:00:19;10.32;;;3.63;;
13801;SDS011;6972;51.518;6.918;2023-03-29T12:05:47;5.82;;;3.60;;
13801;SDS011;6972;51.518;6.918;2023-03-29T12:13:46;7.72;;;3.75;;
13801;SDS011;6972;51.518;6.918;2023-03-29T12:16:30;6.80;;;3.75;;
13801;SDS011;6972;51.518;6.918;2023-03-29T12:19:20;8.50;;;3.28;;
13801;SDS011;6972;51.518;6.918;2023-03-29T12:21:47;8.13;;;3.63;;
13801;SDS011;6972;51.518;6.918;2023-03-29T12:24:14;6.65;;;3.83;;
13801;SDS011;6972;51.518;6.918;2023-03-29T12:37:19;10.32;;;4.05;;
13801;SDS011;6972;51.518;6.918;2023-03-29T12:40:35;10.88;;;3.88;;
13801;SDS011;6972;51.518;6.918;2023-03-29T12:42:58;9.80;;;3.55;;
13801;SDS011;6972;51.518;6.918;2023-03-29T12:45:32;8.60;;;3.33;;
13801;SDS011;6972;51.518;6.918;2023-03-29T12:48:02;5.93;;;3.00;;
13801;SDS011;6972;51.518;6.918;2023-03-29T12:50:33;11.98;;;3.72;;
13801;SDS011;6972;51.518;6.918;2023-03-29T13:14:26;4.72;;;2.85;;
13801;SDS011;6972;51.518;6.918;2023-03-29T13:17:00;7.90;;;3.30;;
13801;SDS011;6972;51.518;6.918;2023-03-29T13:19:33;6.95;;;3.20;;
13801;SDS011;6972;51.518;6.918;2023-03-29T13:33:16;5.13;;;3.10;;
13801;SDS011;6972;51.518;6.918;2023-03-29T13:38:28;6.38;;;3.08;;
13801;SDS011;6972;51.518;6.918;2023-03-29T13:41:10;7.38;;;3.30;;
13801;SDS011;6972;51.518;6.918;2023-03-29T13:43:52;7.38;;;3.08;;
13801;SDS011;6972;51.518;6.918;2023-03-29T13:48:49;6.65;;;2.75;;
13801;SDS011;6972;51.518;6.918;2023-03-29T13:51:26;7.00;;;2.80;;
13801;SDS011;6972;51.518;6.918;2023-03-29T13:53:56;7.53;;;2.58;;
13801;SDS011;6972;51.518;6.918;2023-03-29T13:56:35;7.07;;;2.58;;
13801;SDS011;6972;51.518;6.918;2023-03-29T13:59:25;7.32;;;2.80;;
13801;SDS011;6972;51.518;6.918;2023-03-29T14:01:59;4.90;;;2.47;;
13801;SDS011;6972;51.518;6.918;2023-03-29T14:04:36;4.38;;;2.80;;
13801;SDS011;6972;51.518;6.918;2023-03-29T14:07:09;6.97;;;2.72;;
13801;SDS011;6972;51.518;6.918;2023-03-29T14:09:39;10.20;;;3.00;;
13801;SDS011;6972;51.518;6.918;2023-03-29T14:12:10;10.48;;;3.47;;
13801;SDS011;6972;51.518;6.918;2023-03-29T14:14:38;8.45;;;3.10;;
13801;SDS011;6972;51.518;6.918;2023-03-29T14:17:07;7.00;;;2.90;;
13801;SDS011;6972;51.518;6.918;2023-03-29T14:19:34;22.38;;;5.13;;
13801;SDS011;6972;51.518;6.918;2023-03-29T14:22:05;5.63;;;2.88;;
13801;SDS011;6972;51.518;6.918;2023-03-29T14:24:39;6.88;;;2.80;;
13801;SDS011;6972;51.518;6.918;2023-03-29T14:27:12;9.57;;;3.08;;
13801;SDS011;6972;51.518;6.918;2023-03-29T14:29:38;6.85;;;2.70;;
13801;SDS011;6972;51.518;6.918;2023-03-29T14:32:08;5.57;;;2.78;;
13801;SDS011;6972;51.518;6.918;2023-03-29T14:34:38;7.75;;;2.42;;
13801;SDS011;6972;51.518;6.918;2023-03-29T14:37:04;5.07;;;2.33;;
13801;SDS011;6972;51.518;6.918;2023-03-29T14:39:33;3.88;;;2.60;;
13801;SDS011;6972;51.518;6.918;2023-03-29T14:41:59;4.45;;;2.60;;
13801;SDS011;6972;51.518;6.918;2023-03-29T14:44:26;6.25;;;2.50;;
13801;SDS011;6972;51.518;6.918;2023-03-29T14:46:54;5.95;;;2.33;;
13801;SDS011;6972;51.518;6.918;2023-03-29T14:49:21;3.65;;;2.40;;
13801;SDS011;6972;51.518;6.918;2023-03-29T14:51:47;4.85;;;2.13;;
13801;SDS011;6972;51.518;6.918;2023-03-29T14:54:27;3.85;;;2.42;;
13801;SDS011;6972;51.518;6.918;2023-03-29T14:56:56;4.97;;;2.08;;
13801;SDS011;6972;51.518;6.918;2023-03-29T15:04:55;2.55;;;1.80;;
13801;SDS011;6972;51.518;6.918;2023-03-29T15:07:26;5.18;;;1.70;;
13801;SDS011;6972;51.518;6.918;2023-03-29T15:09:53;3.67;;;1.90;;
13801;SDS011;6972;51.518;6.918;2023-03-29T15:12:20;6.22;;;2.10;;
13801;SDS011;6972;51.518;6.918;2023-03-29T15:14:47;4.00;;;1.92;;
13801;SDS011;6972;51.518;6.918;2023-03-29T15:20:04;6.95;;;2.58;;
13801;SDS011;6972;51.518;6.918;2023-03-29T15:22:37;4.00;;;2.10;;
13801;SDS011;6972;51.518;6.918;2023-03-29T15:25:08;3.80;;;1.88;;
13801;SDS011;6972;51.518;6.918;2023-03-29T15:27:41;2.97;;;1.83;;
13801;SDS011;6972;51.518;6.918;2023-03-29T15:30:08;7.20;;;2.05;;
13801;SDS011;6972;51.518;6.918;2023-03-29T15:32:37;9.38;;;1.95;;
13801;SDS011;6972;51.518;6.918;2023-03-29T15:35:06;3.63;;;1.77;;
13801;SDS011;6972;51.518;6.918;2023-03-29T15:37:45;7.18;;;1.80;;
13801;SDS011;6972;51.518;6.918;2023-03-29T15:40:14;4.70;;;2.27;;
13801;SDS011;6972;51.518;6.918;2023-03-29T15:42:40;4.03;;;1.70;;
13801;SDS011;6972;51.518;6.918;2023-03-29T15:45:11;3.35;;;1.70;;
13801;SDS011;6972;51.518;6.918;2023-03-29T15:47:43;4.45;;;2.05;;
13801;SDS011;6972;51.518;6.918;2023-03-29T15:50:09;6.10;;;1.90;;
13801;SDS011;6972;51.518;6.918;2023-03-29T15:52:35;3.30;;;1.85;;
13801;SDS011;6972;51.518;6.918;2023-03-29T15:55:02;6.55;;;1.60;;
13801;SDS011;6972;51.518;6.918;2023-03-29T15:57:28;3.00;;;1.70;;
13801;SDS011;6972;51.518;6.918;2023-03-29T15:59:54;6.32;;;1.90;;
13801;SDS011;6972;51.518;6.918;2023-03-29T16:02:21;8.48;;;1.77;;
13801;SDS011;6972;51.518;6.918;2023-03-29T16:04:48;3.38;;;1.77;;
13801;SDS011;6972;51.518;6.918;2023-03-29T16:07:15;6.45;;;1.75;;
13801;SDS011;6972;51.518;6.918;2023-03-29T16:09:42;6.20;;;1.85;;
13801;SDS011;6972;51.518;6.918;2023-03-29T16:12:10;3.10;;;1.95;;
13801;SDS011;6972;51.518;6.918;2023-03-29T16:14:36;5.88;;;1.90;;
13801;SDS011;6972;51.518;6.918;2023-03-29T16:17:02;5.43;;;2.20;;
13801;SDS011;6972;51.518;6.918;2023-03-29T16:19:29;8.20;;;2.05;;
13801;SDS011;6972;51.518;6.918;2023-03-29T16:21:55;5.63;;;1.88;;
13801;SDS011;6972;51.518;6.918;2023-03-29T16:24:22;4.82;;;2.33;;
13801;SDS011;6972;51.518;6.918;2023-03-29T16:26:50;4.22;;;2.10;;
13801;SDS011;6972;51.518;6.918;2023-03-29T16:29:17;3.47;;;2.10;;
13801;SDS011;6972;51.518;6.918;2023-03-29T16:31:44;13.02;;;2.30;;
13801;SDS011;6972;51.518;6.918;2023-03-29T16:34:11;5.85;;;2.20;;
13801;SDS011;6972;51.518;6.918;2023-03-29T16:36:38;5.18;;;2.17;;
13801;SDS011;6972;51.518;6.918;2023-03-29T16:39:05;6.80;;;2.55;;
13801;SDS011;6972;51.518;6.918;2023-03-29T16:41:30;3.42;;;2.00;;
13801;SDS011;6972;51.518;6.918;2023-03-29T16:43:57;3.22;;;2.10;;
13801;SDS011;6972;51.518;6.918;2023-03-29T16:46:23;6.57;;;2.05;;
13801;SDS011;6972;51.518;6.918;2023-03-29T16:48:49;4.95;;;2.00;;
13801;SDS011;6972;51.518;6.918;2023-03-29T16:51:17;2.75;;;1.98;;
13801;SDS011;6972;51.518;6.918;2023-03-29T16:53:43;8.45;;;2.35;;
13801;SDS011;6972;51.518;6.918;2023-03-29T16:56:11;4.00;;;2.20;;
13801;SDS011;6972;51.518;6.918;2023-03-29T16:58:38;7.20;;;2.08;;
13801;SDS011;6972;51.518;6.918;2023-03-29T17:01:08;5.13;;;1.90;;
13801;SDS011;6972;51.518;6.918;2023-03-29T17:03:35;5.65;;;1.95;;
13801;SDS011;6972;51.518;6.918;2023-03-29T17:06:02;4.32;;;1.80;;
13801;SDS011;6972;51.518;6.918;2023-03-29T17:08:28;3.05;;;1.80;;
13801;SDS011;6972;51.518;6.918;2023-03-29T17:10:54;5.70;;;1.98;;
13801;SDS011;6972;51.518;6.918;2023-03-29T17:13:21;3.97;;;2.00;;
13801;SDS011;6972;51.518;6.918;2023-03-29T17:15:48;6.20;;;1.83;;
13801;SDS011;6972;51.518;6.918;2023-03-29T17:18:18;3.58;;;2.00;;
13801;SDS011;6972;51.518;6.918;2023-03-29T17:20:48;8.05;;;2.50;;
13801;SDS011;6972;51.518;6.918;2023-03-29T17:23:15;3.67;;;2.13;;
13801;SDS011;6972;51.518;6.918;2023-03-29T17:25:41;5.70;;;2.25;;
13801;SDS011;6972;51.518;6.918;2023-03-29T17:28:07;4.82;;;2.25;;
13801;SDS011;6972;51.518;6.918;2023-03-29T17:30:34;5.00;;;2.58;;
13801;SDS011;6972;51.518;6.918;2023-03-29T17:33:00;4.95;;;2.53;;
13801;SDS011;6972;51.518;6.918;2023-03-29T17:35:26;3.70;;;2.22;;
13801;SDS011;6972;51.518;6.918;2023-03-29T17:37:52;3.85;;;2.47;;
13801;SDS011;6972;51.518;6.918;2023-03-29T17:40:19;4.82;;;2.17;;
13801;SDS011;6972;51.518;6.918;2023-03-29T17:42:45;7.03;;;2.67;;
13801;SDS011;6972;51.518;6.918;2023-03-29T17:45:12;5.65;;;2.60;;
13801;SDS011;6972;51.518;6.918;2023-03-29T17:47:38;6.97;;;2.50;;
13801;SDS011;6972;51.518;6.918;2023-03-29T17:50:07;9.57;;;2.47;;
13801;SDS011;6972;51.518;6.918;2023-03-29T17:52:34;4.68;;;2.40;;
13801;SDS011;6972;51.518;6.918;2023-03-29T17:55:00;6.63;;;2.45;;
13801;SDS011;6972;51.518;6.918;2023-03-29T17:57:26;4.18;;;2.28;;
13801;SDS011;6972;51.518;6.918;2023-03-29T17:59:52;5.10;;;2.58;;
13801;SDS011;6972;51.518;6.918;2023-03-29T18:02:19;6.25;;;2.05;;
13801;SDS011;6972;51.518;6.918;2023-03-29T18:04:46;4.45;;;2.40;;
13801;SDS011;6972;51.518;6.918;2023-03-29T18:07:13;5.28;;;2.53;;
13801;SDS011;6972;51.518;6.918;2023-03-29T18:09:39;6.40;;;2.38;;
13801;SDS011;6972;51.518;6.918;2023-03-29T18:12:08;6.40;;;2.22;;
13801;SDS011;6972;51.518;6.918;2023-03-29T18:14:34;3.65;;;2.30;;
13801;SDS011;6972;51.518;6.918;2023-03-29T18:17:00;5.43;;;2.28;;
13801;SDS011;6972;51.518;6.918;2023-03-29T18:19:26;5.40;;;2.40;;
13801;SDS011;6972;51.518;6.918;2023-03-29T18:21:52;4.50;;;2.10;;
13801;SDS011;6972;51.518;6.918;2023-03-29T18:24:18;6.57;;;2.10;;
13801;SDS011;6972;51.518;6.918;2023-03-29T18:26:44;4.90;;;2.50;;
13801;SDS011;6972;51.518;6.918;2023-03-29T18:29:10;5.80;;;3.13;;
13801;SDS011;6972;51.518;6.918;2023-03-29T18:31:36;5.68;;;2.92;;
13801;SDS011;6972;51.518;6.918;2023-03-29T18:34:01;10.70;;;2.72;;
13801;SDS011;6972;51.518;6.918;2023-03-29T18:36:27;9.60;;;3.00;;
13801;SDS011;6972;51.518;6.918;2023-03-29T18:38:54;5.60;;;2.38;;
13801;SDS011;6972;51.518;6.918;2023-03-29T18:41:26;5.43;;;2.50;;
13801;SDS011;6972;51.518;6.918;2023-03-29T18:43:52;8.23;;;3.10;;
13801;SDS011;6972;51.518;6.918;2023-03-29T18:46:21;6.20;;;2.67;;
13801;SDS011;6972;51.518;6.918;2023-03-29T18:48:47;5.20;;;3.20;;
13801;SDS011;6972;51.518;6.918;2023-03-29T18:51:13;6.65;;;2.90;;
13801;SDS011;6972;51.518;6.918;2023-03-29T18:53:39;4.30;;;2.42;;
13801;SDS011;6972;51.518;6.918;2023-03-29T18:56:07;4.00;;;2.58;;
13801;SDS011;6972;51.518;6.918;2023-03-29T18:58:33;5.97;;;2.70;;
13801;SDS011;6972;51.518;6.918;2023-03-29T19:01:00;8.35;;;2.40;;
13801;SDS011;6972;51.518;6.918;2023-03-29T19:03:28;4.85;;;2.33;;
13801;SDS011;6972;51.518;6.918;2023-03-29T19:05:54;4.97;;;2.50;;
13801;SDS011;6972;51.518;6.918;2023-03-29T19:08:20;3.13;;;2.25;;
13801;SDS011;6972;51.518;6.918;2023-03-29T19:10:46;4.65;;;2.47;;
13801;SDS011;6972;51.518;6.918;2023-03-29T19:13:12;7.22;;;3.20;;
13801;SDS011;6972;51.518;6.918;2023-03-29T19:15:38;4.72;;;2.63;;
13801;SDS011;6972;51.518;6.918;2023-03-29T19:18:05;5.30;;;2.70;;
13801;SDS011;6972;51.518;6.918;2023-03-29T19:20:31;7.03;;;3.13;;
13801;SDS011;6972;51.518;6.918;2023-03-29T19:22:58;5.28;;;2.55;;
13801;SDS011;6972;51.518;6.918;2023-03-29T19:25:25;5.80;;;2.78;;
13801;SDS011;6972;51.518;6.918;2023-03-29T19:27:51;6.80;;;2.50;;
13801;SDS011;6972;51.518;6.918;2023-03-29T19:30:17;5.45;;;2.60;;
13801;SDS011;6972;51.518;6.918;2023-03-29T19:32:47;6.53;;;2.60;;
13801;SDS011;6972;51.518;6.918;2023-03-29T19:35:16;5.95;;;2.30;;
13801;SDS011;6972;51.518;6.918;2023-03-29T19:37:42;3.60;;;2.17;;
13801;SDS011;6972;51.518;6.918;2023-03-29T19:40:08;3.03;;;2.20;;
13801;SDS011;6972;51.518;6.918;2023-03-29T19:42:37;7.32;;;2.38;;
13801;SDS011;6972;51.518;6.918;2023-03-29T19:45:03;6.80;;;2.50;;
13801;SDS011;6972;51.518;6.918;2023-03-29T19:47:31;6.18;;;2.47;;
13801;SDS011;6972;51.518;6.918;2023-03-29T19:49:57;6.55;;;2.42;;
13801;SDS011;6972;51.518;6.918;2023-03-29T19:52:24;7.40;;;2.72;;
13801;SDS011;6972;51.518;6.918;2023-03-29T19:54:51;4.47;;;2.42;;
13801;SDS011;6972;51.518;6.918;2023-03-29T19:57:17;5.35;;;2.65;;
13801;SDS011;6972;51.518;6.918;2023-03-29T19:59:43;3.83;;;2.40;;
13801;SDS011;6972;51.518;6.918;2023-03-29T20:02:10;5.05;;;2.85;;
13801;SDS011;6972;51.518;6.918;2023-03-29T20:04:36;6.57;;;2.40;;
13801;SDS011;6972;51.518;6.918;2023-03-29T20:07:02;4.60;;;2.60;;
13801;SDS011;6972;51.518;6.918;2023-03-29T20:09:28;4.47;;;2.67;;
13801;SDS011;6972;51.518;6.918;2023-03-29T20:11:54;4.60;;;2.30;;
13801;SDS011;6972;51.518;6.918;2023-03-29T20:14:20;3.30;;;2.22;;
13801;SDS011;6972;51.518;6.918;2023-03-29T20:16:46;8.38;;;2.70;;
13801;SDS011;6972;51.518;6.918;2023-03-29T20:19:14;5.05;;;2.50;;
13801;SDS011;6972;51.518;6.918;2023-03-29T20:21:42;6.22;;;2.10;;
13801;SDS011;6972;51.518;6.918;2023-03-29T20:24:08;6.18;;;2.70;;
13801;SDS011;6972;51.518;6.918;2023-03-29T20:26:34;6.07;;;2.10;;
13801;SDS011;6972;51.518;6.918;2023-03-29T20:29:00;8.13;;;2.55;;
13801;SDS011;6972;51.518;6.918;2023-03-29T20:31:27;4.75;;;2.30;;
13801;SDS011;6972;51.518;6.918;2023-03-29T20:33:53;5.93;;;2.50;;
13801;SDS011;6972;51.518;6.918;2023-03-29T20:36:19;8.30;;;2.40;;
13801;SDS011;6972;51.518;6.918;2023-03-29T20:38:47;7.97;;;2.60;;
13801;SDS011;6972;51.518;6.918;2023-03-29T20:41:13;8.77;;;2.70;;
13801;SDS011;6972;51.518;6.918;2023-03-29T20:43:39;6.80;;;2.40;;
13801;SDS011;6972;51.518;6.918;2023-03-29T20:46:06;4.72;;;2.50;;
13801;SDS011;6972;51.518;6.918;2023-03-29T20:48:41;6.70;;;2.60;;
13801;SDS011;6972;51.518;6.918;2023-03-29T20:51:10;6.40;;;2.60;;
13801;SDS011;6972;51.518;6.918;2023-03-29T20:53:38;5.07;;;2.67;;
13801;SDS011;6972;51.518;6.918;2023-03-29T20:56:06;3.67;;;2.55;;
13801;SDS011;6972;51.518;6.918;2023-03-29T20:58:32;4.63;;;2.45;;
13801;SDS011;6972;51.518;6.918;2023-03-29T21:00:58;6.30;;;2.70;;
13801;SDS011;6972;51.518;6.918;2023-03-29T21:03:24;6.00;;;3.03;;
13801;SDS011;6972;51.518;6.918;2023-03-29T21:05:53;7.13;;;2.65;;
13801;SDS011;6972;51.518;6.918;2023-03-29T21:08:19;6.00;;;2.45;;
13801;SDS011;6972;51.518;6.918;2023-03-29T21:10:45;4.68;;;2.50;;
13801;SDS011;6972;51.518;6.918;2023-03-29T21:13:11;6.80;;;2.90;;
13801;SDS011;6972;51.518;6.918;2023-03-29T21:15:39;5.60;;;2.78;;
13801;SDS011;6972;51.518;6.918;2023-03-29T21:18:05;4.25;;;2.50;;
13801;SDS011;6972;51.518;6.918;2023-03-29T21:20:31;8.98;;;2.90;;
13801;SDS011;6972;51.518;6.918;2023-03-29T21:22:57;6.10;;;2.75;;
13801;SDS011;6972;51.518;6.918;2023-03-29T21:25:24;6.22;;;2.47;;
13801;SDS011;6972;51.518;6.918;2023-03-29T21:27:50;11.93;;;2.92;;
13801;SDS011;6972;51.518;6.918;2023-03-29T21:30:16;7.15;;;2.90;;
13801;SDS011;6972;51.518;6.918;2023-03-29T21:32:44;5.82;;;2.58;;
13801;SDS011;6972;51.518;6.918;2023-03-29T21:35:10;6.43;;;2.35;;
13801;SDS011;6972;51.518;6.918;2023-03-29T21:37:36;8.38;;;2.95;;
13801;SDS011;6972;51.518;6.918;2023-03-29T21:40:02;4.85;;;2.53;;
13801;SDS011;6972;51.518;6.918;2023-03-29T21:42:33;4.85;;;2.55;;
13801;SDS011;6972;51.518;6.918;2023-03-29T21:44:59;4.00;;;2.58;;
13801;SDS011;6972;51.518;6.918;2023-03-29T21:47:24;3.67;;;2.30;;
13801;SDS011;6972;51.518;6.918;2023-03-29T21:49:51;7.25;;;2.65;;
13801;SDS011;6972;51.518;6.918;2023-03-29T21:52:16;2.90;;;2.30;;
13801;SDS011;6972;51.518;6.918;2023-03-29T21:54:42;7.32;;;2.25;;
13801;SDS011;6972;51.518;6.918;2023-03-29T21:57:08;7.63;;;2.38;;
13801;SDS011;6972;51.518;6.918;2023-03-29T21:59:34;5.03;;;2.50;;
13801;SDS011;6972;51.518;6.918;2023-03-29T22:02:00;6.30;;;2.40;;
13801;SDS011;6972;51.518;6.918;2023-03-29T22:04:26;6.25;;;2.33;;
13801;SDS011;6972;51.518;6.918;2023-03-29T22:06:52;5.15;;;2.90;;
13801;SDS011;6972;51.518;6.918;2023-03-29T22:09:18;7.90;;;2.53;;
13801;SDS011;6972;51.518;6.918;2023-03-29T22:11:45;8.02;;;2.40;;
13801;SDS011;6972;51.518;6.918;2023-03-29T22:14:11;4.78;;;2.30;;
13801;SDS011;6972;51.518;6.918;2023-03-29T22:16:37;7.22;;;2.40;;
13801;SDS011;6972;51.518;6.918;2023-03-29T22:19:02;4.68;;;2.10;;
13801;SDS011;6972;51.518;6.918;2023-03-29T22:21:29;4.55;;;2.08;;
13801;SDS011;6972;51.518;6.918;2023-03-29T22:23:55;6.18;;;2.50;;
13801;SDS011;6972;51.518;6.918;2023-03-29T22:26:23;4.10;;;2.17;;
13801;SDS011;6972;51.518;6.918;2023-03-29T22:28:51;6.60;;;2.20;;
13801;SDS011;6972;51.518;6.918;2023-03-29T22:31:18;6.43;;;2.45;;
13801;SDS011;6972;51.518;6.918;2023-03-29T22:33:46;4.57;;;2.58;;
13801;SDS011;6972;51.518;6.918;2023-03-29T22:36:17;8.63;;;2.03;;
13801;SDS011;6972;51.518;6.918;2023-03-29T22:38:43;3.83;;;2.30;;
13801;SDS011;6972;51.518;6.918;2023-03-29T22:41:09;4.72;;;1.98;;
13801;SDS011;6972;51.518;6.918;2023-03-29T22:43:36;4.07;;;2.28;;
13801;SDS011;6972;51.518;6.918;2023-03-29T22:46:02;4.53;;;2.20;;
13801;SDS011;6972;51.518;6.918;2023-03-29T22:48:29;5.97;;;2.38;;
13801;SDS011;6972;51.518;6.918;2023-03-29T22:50:55;5.20;;;1.83;;
13801;SDS011;6972;51.518;6.918;2023-03-29T22:53:20;7.13;;;2.08;;
13801;SDS011;6972;51.518;6.918;2023-03-29T22:55:46;5.85;;;2.20;;
13801;SDS011;6972;51.518;6.918;2023-03-29T22:58:12;4.75;;;2.28;;
13801;SDS011;6972;51.518;6.918;2023-03-29T23:00:38;4.85;;;2.15;;
13801;SDS011;6972;51.518;6.918;2023-03-29T23:03:04;5.15;;;2.05;;
13801;SDS011;6972;51.518;6.918;2023-03-29T23:05:30;6.80;;;2.40;;
13801;SDS011;6972;51.518;6.918;2023-03-29T23:07:56;4.82;;;2.10;;
13801;SDS011;6972;51.518;6.918;2023-03-29T23:10:22;5.43;;;2.13;;
13801;SDS011;6972;51.518;6.918;2023-03-29T23:12:53;4.32;;;1.73;;
13801;SDS011;6972;51.518;6.918;2023-03-29T23:15:32;9.30;;;2.42;;
13801;SDS011;6972;51.518;6.918;2023-03-29T23:18:02;9.32;;;2.22;;
13801;SDS011;6972;51.518;6.918;2023-03-29T23:20:30;4.30;;;2.00;;
13801;SDS011;6972;51.518;6.918;2023-03-29T23:22:56;5.85;;;2.50;;
13801;SDS011;6972;51.518;6.918;2023-03-29T23:25:22;6.68;;;2.40;;
13801;SDS011;6972;51.518;6.918;2023-03-29T23:27:49;6.07;;;1.90;;
13801;SDS011;6972;51.518;6.918;2023-03-29T23:30:16;6.90;;;2.40;;
13801;SDS011;6972;51.518;6.918;2023-03-29T23:32:43;5.25;;;2.45;;
13801;SDS011;6972;51.518;6.918;2023-03-29T23:35:10;7.10;;;2.22;;
13801;SDS011;6972;51.518;6.918;2023-03-29T23:37:36;5.55;;;2.40;;
13801;SDS011;6972;51.518;6.918;2023-03-29T23:40:04;6.38;;;2.25;;
13801;SDS011;6972;51.518;6.918;2023-03-29T23:42:38;5.25;;;2.33;;
13801;SDS011;6972;51.518;6.918;2023-03-29T23:45:05;5.20;;;2.10;;
13801;SDS011;6972;51.518;6.918;2023-03-29T23:47:32;4.82;;;2.22;;
13801;SDS011;6972;51.518;6.918;2023-03-29T23:49:58;5.90;;;2.08;;
13801;SDS011;6972;51.518;6.918;2023-03-29T23:52:26;5.25;;;2.00;;